Terminal Aerodrome Forecast
Issued by NWS

Home | Current Version | Previous Version | Text Only | Print | Product List | Glossary On
Versions: 1 2 3 4 5 6 7 8 9 10 11 12 13 14 15 16
000
FTUS41 KPBZ 250520
TAFAGC
TAF
KAGC 250520Z 2506/2606 10010G18KT P6SM VCSH OVC070
     FM251700 09010G20KT P6SM OVC070
     FM260000 08007KT P6SM BKN025=

USA.gov is the U.S. government's official web portal to all federal, state and local government web resources and services.